KCSQ/CSQ METAR and TAF weather

Enter ICAO airport designator
Station Type Date Time Source
KCSQ METAR 2021/09/20 05:35 UTC NOAA

KCSQ 200535Z AUTO 16006KT 10SM CLR 20/20 A2985 RMK AO2


Station Type Date Time Source
KCSQ Decoded METAR 2021/09/20 05:35 UTC NOAA

Creston, IA, United States (KCSQ) 41-01N 094-22W
Sep 20, 2021 - 01:35 AM EDT / 2021.09.20 0535 UTC
Wind: from the SSE (160 degrees) at 7 MPH (6 KT):0
Visibility: 10 mile(s):0
Sky conditions: clear
Temperature: 68 F (20 C)
Dew Point: 68 F (20 C)
Relative Humidity: 100%
Pressure (altimeter): 29.85 in. Hg (1010 hPa)
ob: KCSQ 200535Z AUTO 16006KT 10SM CLR 20/20 A2985 RMK AO2
cycle: 5

Station Type Date Time Source
KCSQ TAF UTC NOAA

Error!

Example: see airport list